sensor_id;sensor_type;location;lat;lon;timestamp;pressure;altitude;pressure_sealevel;temperature;humidity
21096;BME280;10706;49.036;12.112;2022-08-21T00:02:23;97761.28;;;15.93;100.00
21096;BME280;10706;49.036;12.112;2022-08-21T00:04:50;97763.16;;;15.93;100.00
21096;BME280;10706;49.036;12.112;2022-08-21T00:07:17;97760.19;;;15.94;100.00
21096;BME280;10706;49.036;12.112;2022-08-21T00:09:43;97763.16;;;15.93;100.00
21096;BME280;10706;49.036;12.112;2022-08-21T00:12:09;97763.97;;;15.88;100.00
21096;BME280;10706;49.036;12.112;2022-08-21T00:14:35;97757.78;;;15.88;100.00
21096;BME280;10706;49.036;12.112;2022-08-21T00:17:02;97753.72;;;15.85;100.00
21096;BME280;10706;49.036;12.112;2022-08-21T00:19:29;97750.22;;;15.85;100.00
21096;BME280;10706;49.036;12.112;2022-08-21T00:21:55;97749.41;;;15.89;100.00
21096;BME280;10706;49.036;12.112;2022-08-21T00:24:22;97753.19;;;15.83;100.00
21096;BME280;10706;49.036;12.112;2022-08-21T00:26:49;97759.09;;;15.80;100.00
21096;BME280;10706;49.036;12.112;2022-08-21T00:29:16;97751.03;;;15.80;100.00
21096;BME280;10706;49.036;12.112;2022-08-21T00:31:43;97747.53;;;15.80;100.00
21096;BME280;10706;49.036;12.112;2022-08-21T00:34:10;97749.16;;;15.81;100.00
21096;BME280;10706;49.036;12.112;2022-08-21T00:36:37;97752.13;;;15.84;100.00
21096;BME280;10706;49.036;12.112;2022-08-21T00:39:05;97744.31;;;15.83;100.00
21096;BME280;10706;49.036;12.112;2022-08-21T00:41:33;97746.19;;;15.77;100.00
21096;BME280;10706;49.036;12.112;2022-08-21T00:43:59;97741.06;;;15.76;100.00
21096;BME280;10706;49.036;12.112;2022-08-21T00:46:25;97738.06;;;15.72;100.00
21096;BME280;10706;49.036;12.112;2022-08-21T00:48:50;97732.69;;;15.72;100.00
21096;BME280;10706;49.036;12.112;2022-08-21T00:51:25;97739.69;;;15.68;100.00
21096;BME280;10706;49.036;12.112;2022-08-21T00:53:57;97739.97;;;15.66;100.00
21096;BME280;10706;49.036;12.112;2022-08-21T00:56:25;97730.25;;;15.65;100.00
21096;BME280;10706;49.036;12.112;2022-08-21T00:58:52;97731.63;;;15.73;100.00
21096;BME280;10706;49.036;12.112;2022-08-21T01:01:19;97732.41;;;15.68;100.00
21096;BME280;10706;49.036;12.112;2022-08-21T01:03:46;97729.72;;;15.63;100.00
21096;BME280;10706;49.036;12.112;2022-08-21T01:06:13;97727.84;;;15.59;100.00
21096;BME280;10706;49.036;12.112;2022-08-21T01:08:38;97741.03;;;15.60;100.00
21096;BME280;10706;49.036;12.112;2022-08-21T01:11:05;97736.72;;;15.59;100.00
21096;BME280;10706;49.036;12.112;2022-08-21T01:13:36;97731.88;;;15.56;100.00
21096;BME280;10706;49.036;12.112;2022-08-21T01:16:08;97730.00;;;15.57;100.00
21096;BME280;10706;49.036;12.112;2022-08-21T01:18:34;97725.16;;;15.59;100.00
21096;BME280;10706;49.036;12.112;2022-08-21T01:21:03;97727.56;;;15.55;100.00
21096;BME280;10706;49.036;12.112;2022-08-21T01:23:30;97719.22;;;15.57;100.00
21096;BME280;10706;49.036;12.112;2022-08-21T01:25:56;97725.69;;;15.50;100.00
21096;BME280;10706;49.036;12.112;2022-08-21T01:28:22;97728.38;;;15.45;100.00
21096;BME280;10706;49.036;12.112;2022-08-21T01:30:50;97726.75;;;15.39;100.00
21096;BME280;10706;49.036;12.112;2022-08-21T01:33:19;97725.13;;;15.43;100.00
21096;BME280;10706;49.036;12.112;2022-08-21T01:35:46;97715.69;;;15.41;100.00
21096;BME280;10706;49.036;12.112;2022-08-21T01:38:12;97721.63;;;15.38;100.00
21096;BME280;10706;49.036;12.112;2022-08-21T01:40:38;97733.19;;;15.33;100.00
21096;BME280;10706;49.036;12.112;2022-08-21T01:43:04;97734.53;;;15.30;100.00
21096;BME280;10706;49.036;12.112;2022-08-21T01:45:30;97732.91;;;15.34;100.00
21096;BME280;10706;49.036;12.112;2022-08-21T01:47:56;97734.53;;;15.30;100.00
21096;BME280;10706;49.036;12.112;2022-08-21T01:50:22;97737.72;;;15.27;100.00
21096;BME280;10706;49.036;12.112;2022-08-21T01:52:48;97742.56;;;15.25;100.00
21096;BME280;10706;49.036;12.112;2022-08-21T01:55:16;97729.41;;;15.19;100.00
21096;BME280;10706;49.036;12.112;2022-08-21T01:57:44;97740.16;;;15.24;100.00
21096;BME280;10706;49.036;12.112;2022-08-21T02:00:13;97733.72;;;15.25;100.00
21096;BME280;10706;49.036;12.112;2022-08-21T02:02:41;97738.81;;;15.21;100.00
21096;BME280;10706;49.036;12.112;2022-08-21T02:05:10;97735.84;;;15.23;100.00
21096;BME280;10706;49.036;12.112;2022-08-21T02:07:42;97731.00;;;15.20;100.00
21096;BME280;10706;49.036;12.112;2022-08-21T02:10:11;97731.81;;;15.15;100.00
21096;BME280;10706;49.036;12.112;2022-08-21T02:12:37;97727.75;;;15.18;100.00
21096;BME280;10706;49.036;12.112;2022-08-21T02:15:05;97728.06;;;15.31;100.00
21096;BME280;10706;49.036;12.112;2022-08-21T02:20:05;97714.88;;;15.35;100.00
21096;BME280;10706;49.036;12.112;2022-08-21T02:22:31;97715.44;;;15.42;100.00
21096;BME280;10706;49.036;12.112;2022-08-21T02:24:57;97712.47;;;15.39;100.00
21096;BME280;10706;49.036;12.112;2022-08-21T02:27:24;97710.31;;;15.41;100.00
21096;BME280;10706;49.036;12.112;2022-08-21T02:29:50;97708.97;;;15.33;100.00
21096;BME280;10706;49.036;12.112;2022-08-21T02:32:16;97715.94;;;15.24;100.00
21096;BME280;10706;49.036;12.112;2022-08-21T02:34:42;97713.78;;;15.21;100.00
21096;BME280;10706;49.036;12.112;2022-08-21T02:37:07;97715.66;;;15.25;100.00
21096;BME280;10706;49.036;12.112;2022-08-21T02:39:34;97717.03;;;15.33;100.00
21096;BME280;10706;49.036;12.112;2022-08-21T02:41:59;97707.38;;;15.42;100.00
21096;BME280;10706;49.036;12.112;2022-08-21T02:44:25;97719.47;;;15.50;100.00
21096;BME280;10706;49.036;12.112;2022-08-21T02:46:51;97717.88;;;15.49;100.00
21096;BME280;10706;49.036;12.112;2022-08-21T02:49:17;97722.44;;;15.48;100.00
21096;BME280;10706;49.036;12.112;2022-08-21T02:51:42;97712.75;;;15.47;100.00
21096;BME280;10706;49.036;12.112;2022-08-21T02:54:08;97715.16;;;15.54;100.00
21096;BME280;10706;49.036;12.112;2022-08-21T02:56:34;97711.69;;;15.59;100.00
21096;BME280;10706;49.036;12.112;2022-08-21T02:59:00;97709.25;;;15.57;100.00
21096;BME280;10706;49.036;12.112;2022-08-21T03:01:25;97710.34;;;15.61;100.00
21096;BME280;10706;49.036;12.112;2022-08-21T03:03:51;97708.72;;;15.55;100.00
21096;BME280;10706;49.036;12.112;2022-08-21T03:06:20;97711.94;;;15.52;100.00
21096;BME280;10706;49.036;12.112;2022-08-21T03:08:47;97719.22;;;15.72;100.00
21096;BME280;10706;49.036;12.112;2022-08-21T03:11:14;97711.16;;;15.62;100.00
21096;BME280;10706;49.036;12.112;2022-08-21T03:13:40;97718.16;;;15.63;100.00
21096;BME280;10706;49.036;12.112;2022-08-21T03:16:06;97721.94;;;15.62;100.00
21096;BME280;10706;49.036;12.112;2022-08-21T03:18:32;97723.53;;;15.63;100.00
21096;BME280;10706;49.036;12.112;2022-08-21T03:20:58;97731.34;;;15.59;100.00
21096;BME280;10706;49.036;12.112;2022-08-21T03:23:24;97722.47;;;15.64;100.00
21096;BME280;10706;49.036;12.112;2022-08-21T03:25:50;97726.22;;;15.68;100.00
21096;BME280;10706;49.036;12.112;2022-08-21T03:28:20;97713.84;;;15.67;100.00
21096;BME280;10706;49.036;12.112;2022-08-21T03:30:49;97723.28;;;15.69;100.00
21096;BME280;10706;49.036;12.112;2022-08-21T03:33:16;97723.81;;;15.66;100.00
21096;BME280;10706;49.036;12.112;2022-08-21T03:35:45;97727.84;;;15.69;100.00
21096;BME280;10706;49.036;12.112;2022-08-21T03:38:12;97720.56;;;15.64;100.00
21096;BME280;10706;49.036;12.112;2022-08-21T03:40:39;97725.44;;;15.62;100.00
21096;BME280;10706;49.036;12.112;2022-08-21T03:43:04;97726.22;;;15.63;100.00
21096;BME280;10706;49.036;12.112;2022-08-21T03:45:30;97725.13;;;15.53;100.00
21096;BME280;10706;49.036;12.112;2022-08-21T03:48:01;97727.28;;;15.51;100.00
21096;BME280;10706;49.036;12.112;2022-08-21T03:50:36;97724.63;;;15.57;100.00
21096;BME280;10706;49.036;12.112;2022-08-21T03:53:02;97727.56;;;15.55;100.00
21096;BME280;10706;49.036;12.112;2022-08-21T03:55:29;97728.38;;;15.55;100.00
21096;BME280;10706;49.036;12.112;2022-08-21T03:57:55;97730.53;;;15.59;100.00
21096;BME280;10706;49.036;12.112;2022-08-21T04:00:21;97728.38;;;15.55;100.00
21096;BME280;10706;49.036;12.112;2022-08-21T04:02:48;97733.75;;;15.71;100.00
21096;BME280;10706;49.036;12.112;2022-08-21T04:05:16;97736.19;;;15.62;100.00
21096;BME280;10706;49.036;12.112;2022-08-21T04:08:04;97745.34;;;15.56;100.00
21096;BME280;10706;49.036;12.112;2022-08-21T04:10:33;97745.06;;;15.63;100.00
21096;BME280;10706;49.036;12.112;2022-08-21T04:12:59;97750.44;;;15.47;100.00
21096;BME280;10706;49.036;12.112;2022-08-21T04:15:26;97748.25;;;15.44;100.00
21096;BME280;10706;49.036;12.112;2022-08-21T04:17:52;97750.97;;;15.39;100.00
21096;BME280;10706;49.036;12.112;2022-08-21T04:20:19;97747.69;;;15.37;100.00
21096;BME280;10706;49.036;12.112;2022-08-21T04:22:45;97742.31;;;15.37;100.00
21096;BME280;10706;49.036;12.112;2022-08-21T04:25:13;97752.53;;;15.35;100.00
21096;BME280;10706;49.036;12.112;2022-08-21T04:27:40;97744.75;;;15.39;100.00
21096;BME280;10706;49.036;12.112;2022-08-21T04:30:07;97744.50;;;15.40;100.00
21096;BME280;10706;49.036;12.112;2022-08-21T04:32:35;97754.97;;;15.36;100.00
21096;BME280;10706;49.036;12.112;2022-08-21T04:35:07;97748.78;;;15.31;100.00
21096;BME280;10706;49.036;12.112;2022-08-21T04:37:34;97758.97;;;15.24;100.00
21096;BME280;10706;49.036;12.112;2022-08-21T04:40:00;97757.09;;;15.19;100.00
21096;BME280;10706;49.036;12.112;2022-08-21T04:42:27;97767.59;;;15.21;100.00
21096;BME280;10706;49.036;12.112;2022-08-21T04:44:54;97764.34;;;15.24;100.00
21096;BME280;10706;49.036;12.112;2022-08-21T04:47:21;97770.84;;;15.28;100.00
21096;BME280;10706;49.036;12.112;2022-08-21T04:49:47;97764.91;;;15.21;100.00
21096;BME280;10706;49.036;12.112;2022-08-21T04:52:17;97762.75;;;15.23;100.00
21096;BME280;10706;49.036;12.112;2022-08-21T04:54:45;97770.28;;;15.31;100.00
21096;BME280;10706;49.036;12.112;2022-08-21T04:57:14;97767.59;;;15.26;100.00
21096;BME280;10706;49.036;12.112;2022-08-21T04:59:48;97780.00;;;15.37;99.22
21096;BME280;10706;49.036;12.112;2022-08-21T05:02:15;97779.75;;;15.33;98.76
21096;BME280;10706;49.036;12.112;2022-08-21T05:04:49;97774.59;;;15.27;99.02
21096;BME280;10706;49.036;12.112;2022-08-21T05:07:23;97783.44;;;15.17;99.55
21096;BME280;10706;49.036;12.112;2022-08-21T05:09:52;97782.38;;;15.23;99.34
21096;BME280;10706;49.036;12.112;2022-08-21T05:12:19;97784.22;;;15.12;100.00
21096;BME280;10706;49.036;12.112;2022-08-21T05:14:44;97791.28;;;15.29;98.78
21096;BME280;10706;49.036;12.112;2022-08-21T05:17:10;97790.69;;;15.11;99.35
21096;BME280;10706;49.036;12.112;2022-08-21T05:19:36;97782.38;;;15.13;99.98
21096;BME280;10706;49.036;12.112;2022-08-21T05:22:02;97786.41;;;15.21;99.81
21096;BME280;10706;49.036;12.112;2022-08-21T05:24:28;97786.19;;;15.38;99.05
21096;BME280;10706;49.036;12.112;2022-08-21T05:26:54;97790.75;;;15.37;98.56
21096;BME280;10706;49.036;12.112;2022-08-21T05:29:20;97795.56;;;15.25;99.80
21096;BME280;10706;49.036;12.112;2022-08-21T05:31:47;97797.94;;;15.16;100.00
21096;BME280;10706;49.036;12.112;2022-08-21T05:34:20;97792.88;;;15.25;100.00
21096;BME280;10706;49.036;12.112;2022-08-21T05:36:46;97799.31;;;15.24;99.31
21096;BME280;10706;49.036;12.112;2022-08-21T05:39:12;97803.38;;;15.31;98.58
21096;BME280;10706;49.036;12.112;2022-08-21T05:41:38;97802.06;;;15.34;97.81
21096;BME280;10706;49.036;12.112;2022-08-21T05:44:04;97807.66;;;15.17;99.27
21096;BME280;10706;49.036;12.112;2022-08-21T05:46:29;97799.88;;;15.31;98.67
21096;BME280;10706;49.036;12.112;2022-08-21T05:48:55;97801.50;;;15.27;99.41
21096;BME280;10706;49.036;12.112;2022-08-21T05:51:21;97810.41;;;15.32;98.75
21096;BME280;10706;49.036;12.112;2022-08-21T05:53:47;97805.53;;;15.29;98.96
21096;BME280;10706;49.036;12.112;2022-08-21T05:56:14;97804.78;;;15.39;99.30
21096;BME280;10706;49.036;12.112;2022-08-21T05:58:40;97798.81;;;15.37;99.56
21096;BME280;10706;49.036;12.112;2022-08-21T06:01:06;97807.72;;;15.38;99.50
21096;BME280;10706;49.036;12.112;2022-08-21T06:03:38;97806.38;;;15.40;99.71
21096;BME280;10706;49.036;12.112;2022-08-21T06:06:04;97805.31;;;15.46;99.37
21096;BME280;10706;49.036;12.112;2022-08-21T06:08:30;97806.94;;;15.58;99.43
21096;BME280;10706;49.036;12.112;2022-08-21T06:10:58;97804.81;;;15.65;98.81
21096;BME280;10706;49.036;12.112;2022-08-21T06:13:26;97810.75;;;15.62;99.14
21096;BME280;10706;49.036;12.112;2022-08-21T06:16:13;97806.69;;;15.54;98.76
21096;BME280;10706;49.036;12.112;2022-08-21T06:18:40;97811.56;;;15.67;98.61
21096;BME280;10706;49.036;12.112;2022-08-21T06:21:07;97809.47;;;16.00;95.39
21096;BME280;10706;49.036;12.112;2022-08-21T06:23:33;97808.06;;;15.72;96.88
21096;BME280;10706;49.036;12.112;2022-08-21T06:26:01;97812.88;;;15.54;97.35
21096;BME280;10706;49.036;12.112;2022-08-21T06:28:27;97817.16;;;15.45;97.62
21096;BME280;10706;49.036;12.112;2022-08-21T06:30:52;97816.84;;;15.36;98.11
21096;BME280;10706;49.036;12.112;2022-08-21T06:33:18;97813.91;;;15.38;97.49
21096;BME280;10706;49.036;12.112;2022-08-21T06:35:44;97816.38;;;15.55;97.97
21096;BME280;10706;49.036;12.112;2022-08-21T06:38:10;97815.31;;;15.56;96.89
21096;BME280;10706;49.036;12.112;2022-08-21T06:40:36;97812.63;;;15.56;97.18
21096;BME280;10706;49.036;12.112;2022-08-21T06:43:09;97808.63;;;15.74;97.22
21096;BME280;10706;49.036;12.112;2022-08-21T06:45:35;97811.34;;;15.94;96.14
21096;BME280;10706;49.036;12.112;2022-08-21T06:48:02;97806.78;;;15.95;96.57
21096;BME280;10706;49.036;12.112;2022-08-21T06:50:28;97812.44;;;16.04;96.79
21096;BME280;10706;49.036;12.112;2022-08-21T06:53:00;97803.84;;;16.07;96.03
21096;BME280;10706;49.036;12.112;2022-08-21T06:55:26;97803.81;;;16.12;95.89
21096;BME280;10706;49.036;12.112;2022-08-21T06:57:53;97806.25;;;16.24;94.65
21096;BME280;10706;49.036;12.112;2022-08-21T07:00:19;97791.69;;;16.40;94.63
21096;BME280;10706;49.036;12.112;2022-08-21T07:02:45;97797.34;;;16.28;94.36
21096;BME280;10706;49.036;12.112;2022-08-21T07:05:10;97803.53;;;16.29;94.57
21096;BME280;10706;49.036;12.112;2022-08-21T07:07:36;97807.84;;;16.50;94.09
21096;BME280;10706;49.036;12.112;2022-08-21T07:10:02;97807.81;;;16.71;93.24
21096;BME280;10706;49.036;12.112;2022-08-21T07:12:28;97807.56;;;16.73;92.64
21096;BME280;10706;49.036;12.112;2022-08-21T07:14:54;97807.88;;;16.09;93.41
21096;BME280;10706;49.036;12.112;2022-08-21T07:17:19;97817.28;;;15.91;95.95
21096;BME280;10706;49.036;12.112;2022-08-21T07:19:45;97813.53;;;16.08;96.61
21096;BME280;10706;49.036;12.112;2022-08-21T07:22:12;97818.09;;;16.43;94.84
21096;BME280;10706;49.036;12.112;2022-08-21T07:24:38;97812.16;;;16.57;94.36
21096;BME280;10706;49.036;12.112;2022-08-21T07:27:04;97813.78;;;16.58;92.95
21096;BME280;10706;49.036;12.112;2022-08-21T07:29:30;97807.56;;;16.73;92.50
21096;BME280;10706;49.036;12.112;2022-08-21T07:31:56;97812.94;;;16.83;91.75
21096;BME280;10706;49.036;12.112;2022-08-21T07:34:21;97812.63;;;16.74;91.70
21096;BME280;10706;49.036;12.112;2022-08-21T07:36:47;97801.06;;;16.74;91.71
21096;BME280;10706;49.036;12.112;2022-08-21T07:39:13;97805.13;;;16.71;92.22
21096;BME280;10706;49.036;12.112;2022-08-21T07:41:39;97807.25;;;16.74;92.18
21096;BME280;10706;49.036;12.112;2022-08-21T07:44:05;97804.75;;;17.14;91.66
21096;BME280;10706;49.036;12.112;2022-08-21T07:46:30;97813.22;;;17.46;89.74
21096;BME280;10706;49.036;12.112;2022-08-21T07:48:56;97816.97;;;17.56;88.19
21096;BME280;10706;49.036;12.112;2022-08-21T07:51:26;97811.53;;;17.61;87.51
21096;BME280;10706;49.036;12.112;2022-08-21T07:53:55;97814.16;;;17.71;87.87
21096;BME280;10706;49.036;12.112;2022-08-21T07:56:22;97811.69;;;17.85;86.53
21096;BME280;10706;49.036;12.112;2022-08-21T07:58:48;97811.16;;;17.23;90.05
21096;BME280;10706;49.036;12.112;2022-08-21T08:01:14;97810.28;;;17.38;89.56
21096;BME280;10706;49.036;12.112;2022-08-21T08:03:40;97811.41;;;17.32;90.51
21096;BME280;10706;49.036;12.112;2022-08-21T08:06:07;97805.63;;;17.59;88.38
21096;BME280;10706;49.036;12.112;2022-08-21T08:08:41;97817.66;;;17.72;87.10
21096;BME280;10706;49.036;12.112;2022-08-21T08:11:08;97811.75;;;17.69;88.18
21096;BME280;10706;49.036;12.112;2022-08-21T08:13:49;97817.91;;;17.75;87.12
21096;BME280;10706;49.036;12.112;2022-08-21T08:16:16;97816.00;;;17.86;86.94
21096;BME280;10706;49.036;12.112;2022-08-21T08:18:42;97819.88;;;18.09;86.33
21096;BME280;10706;49.036;12.112;2022-08-21T08:21:09;97822.53;;;17.69;87.37
21096;BME280;10706;49.036;12.112;2022-08-21T08:23:36;97817.88;;;17.91;86.34
21096;BME280;10706;49.036;12.112;2022-08-21T08:26:02;97817.78;;;18.01;85.78
21096;BME280;10706;49.036;12.112;2022-08-21T08:28:29;97821.13;;;17.87;86.32
21096;BME280;10706;49.036;12.112;2022-08-21T08:30:57;97824.91;;;17.86;86.44
21096;BME280;10706;49.036;12.112;2022-08-21T08:33:24;97823.38;;;17.70;86.48
21096;BME280;10706;49.036;12.112;2022-08-21T08:35:51;97825.50;;;17.68;87.01
21096;BME280;10706;49.036;12.112;2022-08-21T08:38:20;97826.09;;;17.65;87.92
21096;BME280;10706;49.036;12.112;2022-08-21T08:40:52;97827.38;;;17.78;87.60
21096;BME280;10706;49.036;12.112;2022-08-21T08:43:20;97822.28;;;17.66;87.73
21096;BME280;10706;49.036;12.112;2022-08-21T08:45:50;97829.81;;;17.79;88.40
21096;BME280;10706;49.036;12.112;2022-08-21T08:48:46;97822.41;;;18.30;84.74
21096;BME280;10706;49.036;12.112;2022-08-21T08:51:43;97830.59;;;17.85;87.37
21096;BME280;10706;49.036;12.112;2022-08-21T08:54:24;97835.84;;;18.05;87.29
21096;BME280;10706;49.036;12.112;2022-08-21T08:56:51;97826.00;;;18.20;85.42
21096;BME280;10706;49.036;12.112;2022-08-21T08:59:30;97834.03;;;17.96;87.22
21096;BME280;10706;49.036;12.112;2022-08-21T09:02:04;97827.88;;;18.24;85.30
21096;BME280;10706;49.036;12.112;2022-08-21T09:04:31;97827.88;;;18.24;85.73
21096;BME280;10706;49.036;12.112;2022-08-21T09:10:23;97832.81;;;18.46;83.74
21096;BME280;10706;49.036;12.112;2022-08-21T09:16:04;97835.34;;;18.96;82.42
21096;BME280;10706;49.036;12.112;2022-08-21T09:19:04;97828.81;;;18.73;83.29
21096;BME280;10706;49.036;12.112;2022-08-21T09:24:32;97823.31;;;18.78;83.80
21096;BME280;10706;49.036;12.112;2022-08-21T09:27:18;97829.41;;;18.94;83.35
21096;BME280;10706;49.036;12.112;2022-08-21T09:29:47;97822.56;;;19.02;82.15
21096;BME280;10706;49.036;12.112;2022-08-21T09:32:24;97826.75;;;19.37;82.19
21096;BME280;10706;49.036;12.112;2022-08-21T09:35:17;97824.59;;;19.77;78.69
21096;BME280;10706;49.036;12.112;2022-08-21T09:37:59;97824.19;;;19.65;78.91
21096;BME280;10706;49.036;12.112;2022-08-21T09:40:41;97819.50;;;19.52;79.16
21096;BME280;10706;49.036;12.112;2022-08-21T09:43:21;97823.34;;;19.27;79.39
21096;BME280;10706;49.036;12.112;2022-08-21T09:45:49;97833.03;;;19.09;81.68
21096;BME280;10706;49.036;12.112;2022-08-21T09:48:26;97834.66;;;19.53;78.52
21096;BME280;10706;49.036;12.112;2022-08-21T09:50:53;97824.25;;;19.22;80.87
21096;BME280;10706;49.036;12.112;2022-08-21T09:53:26;97826.47;;;19.39;79.14
21096;BME280;10706;49.036;12.112;2022-08-21T09:56:14;97825.25;;;19.26;79.86
21096;BME280;10706;49.036;12.112;2022-08-21T09:58:59;97815.47;;;19.30;79.83
21096;BME280;10706;49.036;12.112;2022-08-21T10:01:26;97819.19;;;19.77;77.64
21096;BME280;10706;49.036;12.112;2022-08-21T10:04:08;97819.78;;;19.93;77.67
21096;BME280;10706;49.036;12.112;2022-08-21T10:06:34;97825.91;;;20.18;76.44
21096;BME280;10706;49.036;12.112;2022-08-21T10:09:16;97824.31;;;20.31;75.46
21096;BME280;10706;49.036;12.112;2022-08-21T10:12:07;97819.66;;;20.50;75.00
21096;BME280;10706;49.036;12.112;2022-08-21T10:14:52;97816.66;;;20.52;74.37
21096;BME280;10706;49.036;12.112;2022-08-21T10:20:24;97811.91;;;20.76;75.91
21096;BME280;10706;49.036;12.112;2022-08-21T10:34:47;97788.56;;;21.59;72.83
21096;BME280;10706;49.036;12.112;2022-08-21T10:37:40;97798.03;;;21.84;69.67
21096;BME280;10706;49.036;12.112;2022-08-21T10:40:36;97789.13;;;21.69;71.21
21096;BME280;10706;49.036;12.112;2022-08-21T10:55:14;97789.38;;;21.82;70.07
21096;BME280;10706;49.036;12.112;2022-08-21T10:57:57;97782.19;;;21.63;72.10
21096;BME280;10706;49.036;12.112;2022-08-21T11:00:55;97784.44;;;21.84;70.60
21096;BME280;10706;49.036;12.112;2022-08-21T11:03:37;97777.06;;;21.98;70.62
21096;BME280;10706;49.036;12.112;2022-08-21T11:06:53;97781.34;;;22.22;69.13
21096;BME280;10706;49.036;12.112;2022-08-21T11:09:24;97778.75;;;22.17;67.57
21096;BME280;10706;49.036;12.112;2022-08-21T11:15:27;97778.94;;;22.20;69.15
21096;BME280;10706;49.036;12.112;2022-08-21T11:18:49;97772.63;;;22.11;67.47
21096;BME280;10706;49.036;12.112;2022-08-21T11:21:34;97766.59;;;21.91;68.27
21096;BME280;10706;49.036;12.112;2022-08-21T11:24:23;97777.66;;;22.18;69.30
21096;BME280;10706;49.036;12.112;2022-08-21T11:29:55;97755.25;;;23.23;65.27
21096;BME280;10706;49.036;12.112;2022-08-21T11:36:12;97763.44;;;22.21;68.85
21096;BME280;10706;49.036;12.112;2022-08-21T11:38:46;97750.03;;;22.24;67.91
21096;BME280;10706;49.036;12.112;2022-08-21T11:47:15;97738.31;;;22.24;67.64
21096;BME280;10706;49.036;12.112;2022-08-21T11:58:25;97736.69;;;21.91;70.61
21096;BME280;10706;49.036;12.112;2022-08-21T12:01:03;97731.91;;;22.20;66.73
21096;BME280;10706;49.036;12.112;2022-08-21T12:03:38;97726.56;;;22.37;66.87
21096;BME280;10706;49.036;12.112;2022-08-21T12:06:12;97729.78;;;23.37;63.40
21096;BME280;10706;49.036;12.112;2022-08-21T12:08:42;97724.97;;;24.03;62.04
21096;BME280;10706;49.036;12.112;2022-08-21T12:16:39;97711.06;;;26.29;57.29
21096;BME280;10706;49.036;12.112;2022-08-21T12:24:37;97703.75;;;28.13;48.16
21096;BME280;10706;49.036;12.112;2022-08-21T12:27:39;97696.97;;;27.26;51.83
21096;BME280;10706;49.036;12.112;2022-08-21T12:33:03;97685.34;;;28.29;48.69
21096;BME280;10706;49.036;12.112;2022-08-21T12:35:40;97689.38;;;29.15;45.25
21096;BME280;10706;49.036;12.112;2022-08-21T12:38:31;97695.63;;;29.32;44.53
21096;BME280;10706;49.036;12.112;2022-08-21T12:41:14;97683.72;;;28.28;45.95
21096;BME280;10706;49.036;12.112;2022-08-21T12:43:46;97689.59;;;28.43;47.70
21096;BME280;10706;49.036;12.112;2022-08-21T12:46:27;97676.88;;;29.18;43.35
21096;BME280;10706;49.036;12.112;2022-08-21T12:49:00;97676.94;;;29.05;44.02
21096;BME280;10706;49.036;12.112;2022-08-21T12:51:48;97670.38;;;29.45;40.94
21096;BME280;10706;49.036;12.112;2022-08-21T12:54:29;97667.09;;;28.69;43.40
21096;BME280;10706;49.036;12.112;2022-08-21T12:57:03;97665.19;;;27.94;47.53
21096;BME280;10706;49.036;12.112;2022-08-21T12:59:30;97662.47;;;29.63;40.62
21096;BME280;10706;49.036;12.112;2022-08-21T13:02:00;97656.03;;;29.36;40.72
21096;BME280;10706;49.036;12.112;2022-08-21T13:04:40;97655.84;;;29.10;40.34
21096;BME280;10706;49.036;12.112;2022-08-21T13:07:14;97653.09;;;29.10;40.46
21096;BME280;10706;49.036;12.112;2022-08-21T13:09:50;97644.03;;;30.07;39.42
21096;BME280;10706;49.036;12.112;2022-08-21T13:12:17;97646.53;;;29.73;40.86
21096;BME280;10706;49.036;12.112;2022-08-21T13:14:45;97638.94;;;29.85;40.79
21096;BME280;10706;49.036;12.112;2022-08-21T13:17:22;97642.41;;;29.24;41.12
21096;BME280;10706;49.036;12.112;2022-08-21T13:20:30;97640.09;;;29.26;42.41
21096;BME280;10706;49.036;12.112;2022-08-21T13:22:57;97637.00;;;28.92;40.53
21096;BME280;10706;49.036;12.112;2022-08-21T13:25:28;97633.22;;;28.17;42.35
21096;BME280;10706;49.036;12.112;2022-08-21T13:28:08;97626.25;;;28.52;40.89
21096;BME280;10706;49.036;12.112;2022-08-21T13:30:38;97625.81;;;28.18;42.35
21096;BME280;10706;49.036;12.112;2022-08-21T13:33:06;97622.31;;;27.89;41.86
21096;BME280;10706;49.036;12.112;2022-08-21T13:38:30;97618.63;;;28.13;40.94
21096;BME280;10706;49.036;12.112;2022-08-21T13:41:43;97605.69;;;27.98;39.99
21096;BME280;10706;49.036;12.112;2022-08-21T13:44:02;97609.81;;;28.71;38.62
21096;BME280;10706;49.036;12.112;2022-08-21T13:46:35;97608.28;;;29.09;37.38
21096;BME280;10706;49.036;12.112;2022-08-21T13:49:04;97605.34;;;29.76;37.98
21096;BME280;10706;49.036;12.112;2022-08-21T13:51:32;97599.47;;;28.48;38.60
21096;BME280;10706;49.036;12.112;2022-08-21T13:53:58;97603.47;;;28.86;39.87
21096;BME280;10706;49.036;12.112;2022-08-21T13:56:47;97605.44;;;28.86;38.59
21096;BME280;10706;49.036;12.112;2022-08-21T13:59:29;97599.81;;;27.83;41.30
21096;BME280;10706;49.036;12.112;2022-08-21T14:02:22;97601.56;;;27.60;40.49
21096;BME280;10706;49.036;12.112;2022-08-21T14:05:02;97600.22;;;27.13;43.08
21096;BME280;10706;49.036;12.112;2022-08-21T14:07:36;97597.94;;;26.37;44.67
21096;BME280;10706;49.036;12.112;2022-08-21T14:10:21;97593.53;;;25.87;44.86
21096;BME280;10706;49.036;12.112;2022-08-21T14:12:52;97595.09;;;25.21;47.16
21096;BME280;10706;49.036;12.112;2022-08-21T14:15:27;97604.63;;;24.94;46.80
21096;BME280;10706;49.036;12.112;2022-08-21T14:18:06;97598.50;;;24.55;49.58
21096;BME280;10706;49.036;12.112;2022-08-21T14:20:35;97596.25;;;24.49;48.71
21096;BME280;10706;49.036;12.112;2022-08-21T14:23:02;97591.09;;;24.56;50.44
21096;BME280;10706;49.036;12.112;2022-08-21T14:25:38;97588.72;;;24.75;48.63